Terminal Aerodrome Forecast
Issued by NWS Twin Cities, MN

Home | Current Version | Previous Version | Text Only | Print | Product List | Glossary Off
Versions: 1 2 3 4 5 6 7 8 9 10 11 12 13 14 15 16 17 18 19 20 21 22 23 24 25 26 27 28 29 30 31 32 33

000
FTUS43 KMPX 291134
TAFMSP
TAF
KMSP 291134Z 2912/3018 VRB03KT 6SM BR FEW003 FEW100
     FM291500 32010KT P6SM SCT050
     FM291800 32010G16KT 6SM -RA BKN050
      TEMPO 2920/2924 3SM -TSRA BKN030CB
     FM300000 31008KT P6SM VCSH BKN060 OVC250
     FM300300 32007KT P6SM SKC=

USA.gov is the U.S. government's official web portal to all federal, state and local government web resources and services.